createdAt,value
2023-05-16T00:02:05.656Z,100381.94
2023-05-16T00:07:07.723Z,100387.50
2023-05-16T00:12:10.791Z,100383.59
2023-05-16T00:17:12.562Z,100394.22
2023-05-16T00:22:14.469Z,100388.03
2023-05-16T00:27:17.567Z,100392.00
2023-05-16T00:32:19.454Z,100388.81
2023-05-16T00:37:21.266Z,100393.16
2023-05-16T00:42:24.325Z,100386.63
2023-05-16T00:47:26.287Z,100385.81
2023-05-16T00:52:28.402Z,100383.44
2023-05-16T00:57:32.088Z,100383.06
2023-05-16T01:02:34.813Z,100385.44
2023-05-16T01:07:36.735Z,100383.59
2023-05-16T01:12:47.255Z,100382.38
2023-05-16T01:17:57.056Z,100379.06
2023-05-16T01:23:07.045Z,100379.66
2023-05-16T01:28:10.642Z,100382.25
2023-05-16T01:33:12.522Z,100377.16
2023-05-16T01:38:20.596Z,100389.94
2023-05-16T01:43:31.024Z,100381.13
2023-05-16T01:48:39.665Z,100378.25
2023-05-16T01:53:41.347Z,100392.22
2023-05-16T01:58:45.890Z,100391.81
2023-05-16T02:03:47.691Z,100389.31
2023-05-16T02:14:54.687Z,100401.47
2023-05-16T02:19:56.374Z,100403.06
2023-05-16T02:24:58.061Z,100403.22
2023-05-16T02:30:01.107Z,100408.69
2023-05-16T03:17:26.359Z,100424.16
2023-05-16T03:22:28.052Z,100422.47
2023-05-16T03:27:29.822Z,100424.69
2023-05-16T03:32:34.276Z,100420.50
2023-05-16T03:37:36.130Z,100424.69
2023-05-16T03:42:37.860Z,100429.16
2023-05-16T03:47:41.155Z,100425.00
2023-05-16T03:52:42.991Z,100433.63
2023-05-16T03:57:44.992Z,100434.63
2023-05-16T04:02:48.149Z,100428.47
2023-05-16T04:07:49.908Z,100445.41
2023-05-16T04:12:51.592Z,100444.66
2023-05-16T04:17:54.753Z,100452.56
2023-05-16T04:22:56.581Z,100442.41
2023-05-16T04:27:58.331Z,100461.22
2023-05-16T04:33:01.596Z,100462.13
2023-05-16T04:38:03.297Z,100467.28
2023-05-16T04:43:04.933Z,100476.84
2023-05-16T04:48:08.516Z,100485.34
2023-05-16T04:53:10.390Z,100492.63
2023-05-16T04:58:12.024Z,100498.03
2023-05-16T05:03:15.111Z,100504.63
2023-05-16T05:08:18.254Z,100500.41
2023-05-16T05:13:19.910Z,100512.84
2023-05-16T05:18:23.169Z,100529.56
2023-05-16T05:23:25.088Z,100533.31
2023-05-16T05:28:26.803Z,100540.59
2023-05-16T05:33:29.943Z,100550.91
2023-05-16T05:38:31.976Z,100547.56
2023-05-16T05:43:33.789Z,100554.84
2023-05-16T05:48:36.921Z,100569.09
2023-05-16T05:53:38.643Z,100570.38
2023-05-16T05:58:40.490Z,100567.97
2023-05-16T06:03:43.545Z,100582.63
2023-05-16T06:08:45.196Z,100587.94
2023-05-16T06:13:47.015Z,100603.75
2023-05-16T06:18:50.234Z,100611.44
2023-05-16T06:23:51.945Z,100612.97
2023-05-16T06:28:53.580Z,100630.84
2023-05-16T06:33:56.698Z,100628.47
2023-05-16T06:38:58.401Z,100633.38
2023-05-16T06:44:00.196Z,100645.50
2023-05-16T06:49:03.265Z,100644.38
2023-05-16T06:54:05.159Z,100641.47
2023-05-16T06:59:06.851Z,100651.50
2023-05-16T07:04:10.127Z,100647.16
2023-05-16T07:09:11.882Z,100659.59
2023-05-16T07:14:13.567Z,100670.50
2023-05-16T07:19:17.185Z,100676.63
2023-05-16T07:24:18.897Z,100687.25
2023-05-16T07:29:20.540Z,100680.69
2023-05-16T07:34:23.640Z,100686.56
2023-05-16T07:39:25.342Z,100690.72
2023-05-16T07:44:27.085Z,100701.34
2023-05-16T07:49:30.265Z,100699.69
2023-05-16T07:54:32.945Z,100706.13
2023-05-16T07:59:34.762Z,100703.59
2023-05-16T08:04:38.730Z,100710.84
2023-05-16T08:09:40.645Z,100716.56
2023-05-16T08:14:42.321Z,100723.97
2023-05-16T08:19:45.415Z,100731.66
2023-05-16T08:24:47.121Z,100728.44
2023-05-16T08:29:48.790Z,100735.97
2023-05-16T08:34:51.784Z,100739.75
2023-05-16T08:39:53.520Z,100747.81
2023-05-16T08:44:55.292Z,100747.69
2023-05-16T08:50:00.643Z,100756.47
2023-05-16T08:55:10.327Z,100754.84
2023-05-16T09:00:14.556Z,100762.84
2023-05-16T09:05:18.164Z,100760.75
2023-05-16T09:10:20.042Z,100766.06
2023-05-16T09:15:21.828Z,100766.31
2023-05-16T09:20:24.978Z,100766.88
2023-05-16T09:25:31.292Z,100755.13
2023-05-16T09:30:35.096Z,100750.94
2023-05-16T09:40:44.457Z,100744.63
2023-05-16T09:45:47.648Z,100748.13
2023-05-16T09:50:54.671Z,100748.81
2023-05-16T09:56:00.826Z,100759.81
2023-05-16T10:01:03.052Z,100741.19
2023-05-16T10:06:07.613Z,100742.00
2023-05-16T10:11:10.276Z,100747.59
2023-05-16T10:16:14.259Z,100749.72
2023-05-16T10:21:19.552Z,100735.69
2023-05-16T10:26:23.709Z,100743.34
2023-05-16T10:31:25.711Z,100751.53
2023-05-16T10:36:29.092Z,100728.66
2023-05-16T10:41:31.409Z,100730.09
2023-05-16T10:46:33.245Z,100713.69
2023-05-16T10:51:37.877Z,100715.91
2023-05-16T10:56:39.599Z,100708.63
2023-05-16T11:07:18.698Z,100697.50
2023-05-16T11:12:20.752Z,100710.81
2023-05-16T11:17:24.402Z,100713.16
2023-05-16T11:22:28.358Z,100711.28
2023-05-16T11:28:06.272Z,100719.88
2023-05-16T11:33:13.776Z,100720.63
2023-05-16T11:39:02.847Z,100701.47
2023-05-16T11:44:19.908Z,100700.63
2023-05-16T11:49:25.348Z,100712.34
2023-05-16T11:54:30.072Z,100702.28
2023-05-16T11:59:32.971Z,100705.00
2023-05-16T12:04:37.833Z,100708.06
2023-05-16T12:09:43.807Z,100709.16
2023-05-16T12:14:51.246Z,100714.38
2023-05-16T12:19:54.627Z,100713.53
2023-05-16T12:24:56.317Z,100708.91
2023-05-16T12:30:00.355Z,100706.66
2023-05-16T12:35:08.600Z,100718.38
2023-05-16T12:40:13.982Z,100732.94
2023-05-16T12:45:17.039Z,100729.00
2023-05-16T12:50:20.619Z,100737.97
2023-05-16T12:55:41.266Z,100733.47
2023-05-16T13:00:51.725Z,100739.72
2023-05-16T13:18:29.151Z,100742.13
2023-05-16T13:30:41.839Z,100751.94
2023-05-16T13:36:02.567Z,100752.34
2023-05-16T13:41:09.221Z,100765.03
2023-05-16T13:51:42.468Z,100760.50
2023-05-16T13:56:44.913Z,100770.00
2023-05-16T14:01:50.623Z,100772.13
2023-05-16T14:06:53.386Z,100773.16
2023-05-16T14:11:56.663Z,100774.31
2023-05-16T14:17:00.025Z,100769.53
2023-05-16T14:22:02.034Z,100771.19
2023-05-16T14:27:05.612Z,100769.38
2023-05-16T14:32:28.351Z,100777.66
2023-05-16T14:37:44.139Z,100771.94
2023-05-16T14:43:07.385Z,100768.75
2023-05-16T14:48:24.189Z,100767.91
2023-05-16T14:53:38.637Z,100769.38
2023-05-16T14:58:57.239Z,100760.25
2023-05-16T15:04:09.501Z,100758.50
2023-05-16T15:09:11.737Z,100766.34
2023-05-16T15:14:13.506Z,100776.56
2023-05-16T15:19:16.590Z,100780.59
2023-05-16T15:24:18.318Z,100767.81
2023-05-16T15:29:19.990Z,100771.81
2023-05-16T15:34:23.456Z,100763.69
2023-05-16T15:39:25.205Z,100776.22
2023-05-16T15:44:26.895Z,100775.88
2023-05-16T15:49:29.985Z,100780.06
2023-05-16T15:54:31.727Z,100783.19
2023-05-16T15:59:33.415Z,100782.22
2023-05-16T16:04:36.498Z,100791.03
2023-05-16T16:09:38.208Z,100785.00
2023-05-16T16:14:39.948Z,100789.88
2023-05-16T16:19:43.199Z,100791.41
2023-05-16T16:24:44.848Z,100799.84
2023-05-16T16:29:46.548Z,100794.47
2023-05-16T16:34:49.653Z,100794.56
2023-05-16T16:39:51.316Z,100796.94
2023-05-16T16:44:53.201Z,100786.03
2023-05-16T16:49:56.283Z,100790.25
2023-05-16T16:54:57.921Z,100785.94
2023-05-16T16:59:59.610Z,100784.13
2023-05-16T17:05:02.771Z,100782.59
2023-05-16T17:10:05.505Z,100793.91
2023-05-16T17:15:08.606Z,100795.63
2023-05-16T17:20:13.517Z,100807.34
2023-05-16T17:25:15.372Z,100803.59
2023-05-16T17:30:18.782Z,100803.88
2023-05-16T17:35:22.170Z,100803.31
2023-05-16T17:40:24.050Z,100807.22
2023-05-16T17:45:25.985Z,100797.72
2023-05-16T17:50:30.425Z,100810.75
2023-05-16T17:55:32.187Z,100811.63
2023-05-16T18:00:34.023Z,100810.06
2023-05-16T18:05:37.170Z,100812.47
2023-05-16T18:10:50.951Z,100818.47
2023-05-16T18:15:53.681Z,100820.72
2023-05-16T18:20:57.105Z,100827.31
2023-05-16T18:25:59.037Z,100838.25
2023-05-16T18:31:01.396Z,100838.09
2023-05-16T18:36:04.886Z,100841.75
2023-05-16T18:41:06.586Z,100842.34
2023-05-16T18:46:08.256Z,100853.50
2023-05-16T18:51:11.499Z,100857.97
2023-05-16T18:56:13.141Z,100864.28
2023-05-16T19:01:14.781Z,100873.53
2023-05-16T19:06:17.886Z,100886.81
2023-05-16T19:11:19.607Z,100898.97
2023-05-16T19:16:21.286Z,100910.88
2023-05-16T19:21:24.348Z,100914.47
2023-05-16T19:26:26.108Z,100923.72
2023-05-16T19:31:30.288Z,100944.00
2023-05-16T19:36:35.653Z,100945.09
2023-05-16T19:41:37.473Z,100954.59
2023-05-16T19:46:39.160Z,100963.97
2023-05-16T19:51:42.564Z,100965.59
2023-05-16T19:56:44.295Z,100974.13
2023-05-16T20:01:45.992Z,100983.75
2023-05-16T20:06:49.006Z,100985.97
2023-05-16T20:11:51.890Z,100989.75
2023-05-16T20:17:07.551Z,101003.25
2023-05-16T20:22:13.252Z,101009.38
2023-05-16T20:27:15.019Z,101014.63
2023-05-16T20:32:16.669Z,101021.50
2023-05-16T20:37:19.894Z,101020.06
2023-05-16T20:42:21.955Z,101015.84
2023-05-16T20:47:23.738Z,101033.84
2023-05-16T20:52:29.024Z,101032.97
2023-05-16T20:57:30.710Z,101041.97
2023-05-16T21:02:32.393Z,101044.63
2023-05-16T21:07:35.468Z,101044.94
2023-05-16T21:12:37.151Z,101047.16
2023-05-16T21:17:38.826Z,101042.72
2023-05-16T21:22:42.057Z,101050.38
2023-05-16T21:27:44.996Z,101049.41
2023-05-16T21:32:50.496Z,101048.44
2023-05-16T21:37:55.198Z,101047.25
2023-05-16T21:42:57.790Z,101052.75
2023-05-16T21:48:01.753Z,101047.25
2023-05-16T21:53:11.112Z,101057.88
2023-05-16T21:58:15.059Z,101069.69
2023-05-16T22:03:19.647Z,101063.38
2023-05-16T22:08:25.382Z,101071.25
2023-05-16T22:13:28.449Z,101075.75
2023-05-16T22:18:31.935Z,101076.97
2023-05-16T22:23:37.778Z,101071.63
2023-05-16T22:28:40.533Z,101071.63
2023-05-16T22:33:44.074Z,101075.19
2023-05-16T22:38:49.064Z,101088.06
2023-05-16T22:44:07.800Z,101085.09
2023-05-16T22:55:40.177Z,101092.19
2023-05-16T23:19:56.004Z,101090.53
2023-05-16T23:26:29.654Z,101094.28
2023-05-16T23:57:49.525Z,101100.22
